sensor_id;sensor_type;location;lat;lon;timestamp;P1;durP1;ratioP1;P2;durP2;ratioP2
29280;SDS011;25048;49.590;11.026;2023-05-10T00:02:00;4.37;;;2.80;;
29280;SDS011;25048;49.590;11.026;2023-05-10T00:04:27;3.45;;;3.12;;
29280;SDS011;25048;49.590;11.026;2023-05-10T00:06:55;6.20;;;3.00;;
29280;SDS011;25048;49.590;11.026;2023-05-10T00:09:22;3.10;;;2.80;;
29280;SDS011;25048;49.590;11.026;2023-05-10T00:11:50;4.63;;;3.33;;
29280;SDS011;25048;49.590;11.026;2023-05-10T00:14:17;4.78;;;3.35;;
29280;SDS011;25048;49.590;11.026;2023-05-10T00:16:45;4.33;;;3.27;;
29280;SDS011;25048;49.590;11.026;2023-05-10T00:19:13;4.17;;;3.60;;
29280;SDS011;25048;49.590;11.026;2023-05-10T00:21:40;5.30;;;3.90;;
29280;SDS011;25048;49.590;11.026;2023-05-10T00:24:08;5.83;;;3.73;;
29280;SDS011;25048;49.590;11.026;2023-05-10T00:26:35;4.13;;;3.20;;
29280;SDS011;25048;49.590;11.026;2023-05-10T00:29:02;7.87;;;4.33;;
29280;SDS011;25048;49.590;11.026;2023-05-10T00:31:30;7.53;;;4.00;;
29280;SDS011;25048;49.590;11.026;2023-05-10T00:33:58;5.03;;;3.90;;
29280;SDS011;25048;49.590;11.026;2023-05-10T00:36:25;5.00;;;4.03;;
29280;SDS011;25048;49.590;11.026;2023-05-10T00:38:53;6.80;;;4.67;;
29280;SDS011;25048;49.590;11.026;2023-05-10T00:41:21;9.77;;;5.10;;
29280;SDS011;25048;49.590;11.026;2023-05-10T00:43:48;8.50;;;4.73;;
29280;SDS011;25048;49.590;11.026;2023-05-10T00:46:15;8.27;;;4.23;;
29280;SDS011;25048;49.590;11.026;2023-05-10T00:48:43;6.27;;;5.00;;
29280;SDS011;25048;49.590;11.026;2023-05-10T00:51:12;8.27;;;4.47;;
29280;SDS011;25048;49.590;11.026;2023-05-10T00:53:40;11.63;;;5.30;;
29280;SDS011;25048;49.590;11.026;2023-05-10T00:56:07;6.87;;;5.17;;
29280;SDS011;25048;49.590;11.026;2023-05-10T00:58:36;5.93;;;5.10;;
29280;SDS011;25048;49.590;11.026;2023-05-10T01:01:04;7.40;;;6.17;;
29280;SDS011;25048;49.590;11.026;2023-05-10T01:03:33;12.13;;;5.63;;
29280;SDS011;25048;49.590;11.026;2023-05-10T01:06:01;9.47;;;5.40;;
29280;SDS011;25048;49.590;11.026;2023-05-10T01:08:29;9.30;;;5.30;;
29280;SDS011;25048;49.590;11.026;2023-05-10T01:10:57;6.93;;;5.17;;
29280;SDS011;25048;49.590;11.026;2023-05-10T01:16:01;10.50;;;5.13;;
29280;SDS011;25048;49.590;11.026;2023-05-10T01:18:29;7.40;;;5.50;;
29280;SDS011;25048;49.590;11.026;2023-05-10T01:21:04;12.17;;;6.33;;
29280;SDS011;25048;49.590;11.026;2023-05-10T01:23:45;8.80;;;6.17;;
29280;SDS011;25048;49.590;11.026;2023-05-10T01:28:58;10.63;;;7.23;;
29280;SDS011;25048;49.590;11.026;2023-05-10T01:34:25;9.13;;;6.60;;
29280;SDS011;25048;49.590;11.026;2023-05-10T01:37:01;8.07;;;6.50;;
29280;SDS011;25048;49.590;11.026;2023-05-10T01:39:42;11.40;;;7.10;;
29280;SDS011;25048;49.590;11.026;2023-05-10T01:42:21;12.60;;;7.93;;
29280;SDS011;25048;49.590;11.026;2023-05-10T01:44:57;13.13;;;7.40;;
29280;SDS011;25048;49.590;11.026;2023-05-10T01:47:38;11.50;;;7.00;;
29280;SDS011;25048;49.590;11.026;2023-05-10T01:50:18;9.93;;;7.30;;
29280;SDS011;25048;49.590;11.026;2023-05-10T01:52:49;13.23;;;7.83;;
29280;SDS011;25048;49.590;11.026;2023-05-10T01:55:18;10.13;;;7.77;;
29280;SDS011;25048;49.590;11.026;2023-05-10T01:57:48;11.67;;;8.40;;
29280;SDS011;25048;49.590;11.026;2023-05-10T02:00:18;14.77;;;8.20;;
29280;SDS011;25048;49.590;11.026;2023-05-10T02:02:47;9.57;;;7.43;;
29280;SDS011;25048;49.590;11.026;2023-05-10T02:05:16;9.53;;;6.93;;
29280;SDS011;25048;49.590;11.026;2023-05-10T02:07:45;10.70;;;8.43;;
29280;SDS011;25048;49.590;11.026;2023-05-10T02:10:14;12.73;;;8.20;;
29280;SDS011;25048;49.590;11.026;2023-05-10T02:12:43;13.87;;;8.43;;
29280;SDS011;25048;49.590;11.026;2023-05-10T02:15:12;9.47;;;7.23;;
29280;SDS011;25048;49.590;11.026;2023-05-10T02:17:43;12.57;;;8.93;;
29280;SDS011;25048;49.590;11.026;2023-05-10T02:20:13;15.30;;;9.07;;
29280;SDS011;25048;49.590;11.026;2023-05-10T02:22:42;12.73;;;8.67;;
29280;SDS011;25048;49.590;11.026;2023-05-10T02:25:11;12.93;;;8.43;;
29280;SDS011;25048;49.590;11.026;2023-05-10T02:27:42;11.87;;;8.23;;
29280;SDS011;25048;49.590;11.026;2023-05-10T02:30:11;13.13;;;9.53;;
29280;SDS011;25048;49.590;11.026;2023-05-10T02:32:39;14.97;;;9.20;;
29280;SDS011;25048;49.590;11.026;2023-05-10T02:35:08;16.73;;;8.77;;
29280;SDS011;25048;49.590;11.026;2023-05-10T02:37:36;12.00;;;9.40;;
29280;SDS011;25048;49.590;11.026;2023-05-10T02:40:05;12.53;;;9.87;;
29280;SDS011;25048;49.590;11.026;2023-05-10T02:42:35;12.37;;;8.87;;
29280;SDS011;25048;49.590;11.026;2023-05-10T02:45:05;13.60;;;9.20;;
29280;SDS011;25048;49.590;11.026;2023-05-10T02:47:35;13.37;;;9.20;;
29280;SDS011;25048;49.590;11.026;2023-05-10T02:50:02;14.90;;;10.20;;
29280;SDS011;25048;49.590;11.026;2023-05-10T02:52:35;13.83;;;10.27;;
29280;SDS011;25048;49.590;11.026;2023-05-10T02:55:04;16.23;;;10.10;;
29280;SDS011;25048;49.590;11.026;2023-05-10T02:57:34;14.77;;;9.70;;
29280;SDS011;25048;49.590;11.026;2023-05-10T03:00:04;16.53;;;10.30;;
29280;SDS011;25048;49.590;11.026;2023-05-10T03:02:33;15.77;;;10.70;;
29280;SDS011;25048;49.590;11.026;2023-05-10T03:05:01;14.13;;;9.13;;
29280;SDS011;25048;49.590;11.026;2023-05-10T03:07:29;9.63;;;6.47;;
29280;SDS011;25048;49.590;11.026;2023-05-10T03:09:56;8.00;;;5.27;;
29280;SDS011;25048;49.590;11.026;2023-05-10T03:15:47;3.73;;;2.73;;
29280;SDS011;25048;49.590;11.026;2023-05-10T03:18:21;2.57;;;2.00;;
29280;SDS011;25048;49.590;11.026;2023-05-10T03:20:47;2.57;;;2.00;;
29280;SDS011;25048;49.590;11.026;2023-05-10T03:25:46;4.00;;;2.17;;
29280;SDS011;25048;49.590;11.026;2023-05-10T03:28:16;2.20;;;1.80;;
29280;SDS011;25048;49.590;11.026;2023-05-10T03:30:45;3.60;;;1.60;;
29280;SDS011;25048;49.590;11.026;2023-05-10T03:33:13;1.70;;;1.60;;
29280;SDS011;25048;49.590;11.026;2023-05-10T03:35:41;2.77;;;1.30;;
29280;SDS011;25048;49.590;11.026;2023-05-10T03:38:10;1.63;;;1.40;;
29280;SDS011;25048;49.590;11.026;2023-05-10T03:40:38;2.03;;;1.47;;
29280;SDS011;25048;49.590;11.026;2023-05-10T03:43:06;1.73;;;1.37;;
29280;SDS011;25048;49.590;11.026;2023-05-10T03:45:33;1.23;;;1.10;;
29280;SDS011;25048;49.590;11.026;2023-05-10T03:48:01;1.70;;;1.20;;
29280;SDS011;25048;49.590;11.026;2023-05-10T03:50:28;1.63;;;1.20;;
29280;SDS011;25048;49.590;11.026;2023-05-10T03:52:56;2.13;;;1.50;;
29280;SDS011;25048;49.590;11.026;2023-05-10T03:55:24;1.53;;;1.40;;
29280;SDS011;25048;49.590;11.026;2023-05-10T03:57:51;2.73;;;1.53;;
29280;SDS011;25048;49.590;11.026;2023-05-10T04:00:19;1.97;;;1.63;;
29280;SDS011;25048;49.590;11.026;2023-05-10T04:02:47;1.87;;;1.50;;
29280;SDS011;25048;49.590;11.026;2023-05-10T04:05:14;3.20;;;1.67;;
29280;SDS011;25048;49.590;11.026;2023-05-10T04:07:42;2.07;;;1.47;;
29280;SDS011;25048;49.590;11.026;2023-05-10T04:10:10;3.10;;;1.20;;
29280;SDS011;25048;49.590;11.026;2023-05-10T04:12:38;2.90;;;1.30;;
29280;SDS011;25048;49.590;11.026;2023-05-10T04:15:05;2.67;;;2.17;;
29280;SDS011;25048;49.590;11.026;2023-05-10T04:17:33;1.30;;;1.20;;
29280;SDS011;25048;49.590;11.026;2023-05-10T04:20:01;1.57;;;1.40;;
29280;SDS011;25048;49.590;11.026;2023-05-10T04:22:29;2.10;;;1.27;;
29280;SDS011;25048;49.590;11.026;2023-05-10T04:24:56;1.67;;;1.17;;
29280;SDS011;25048;49.590;11.026;2023-05-10T04:27:24;1.57;;;1.20;;
29280;SDS011;25048;49.590;11.026;2023-05-10T04:29:52;1.23;;;1.13;;
29280;SDS011;25048;49.590;11.026;2023-05-10T04:32:19;1.10;;;1.03;;
29280;SDS011;25048;49.590;11.026;2023-05-10T04:34:47;1.47;;;1.20;;
29280;SDS011;25048;49.590;11.026;2023-05-10T04:37:14;1.20;;;1.10;;
29280;SDS011;25048;49.590;11.026;2023-05-10T04:39:42;1.13;;;1.03;;
29280;SDS011;25048;49.590;11.026;2023-05-10T04:42:09;1.17;;;1.10;;
29280;SDS011;25048;49.590;11.026;2023-05-10T04:44:37;1.37;;;1.20;;
29280;SDS011;25048;49.590;11.026;2023-05-10T04:47:05;1.37;;;1.27;;
29280;SDS011;25048;49.590;11.026;2023-05-10T04:49:32;1.10;;;1.00;;
29280;SDS011;25048;49.590;11.026;2023-05-10T04:52:00;1.23;;;1.13;;
29280;SDS011;25048;49.590;11.026;2023-05-10T04:54:27;1.23;;;1.13;;
29280;SDS011;25048;49.590;11.026;2023-05-10T04:56:55;3.20;;;1.27;;
29280;SDS011;25048;49.590;11.026;2023-05-10T04:59:22;1.40;;;1.10;;
29280;SDS011;25048;49.590;11.026;2023-05-10T05:01:50;1.10;;;1.00;;
29280;SDS011;25048;49.590;11.026;2023-05-10T05:04:17;1.20;;;1.10;;
29280;SDS011;25048;49.590;11.026;2023-05-10T05:06:45;2.80;;;1.50;;
29280;SDS011;25048;49.590;11.026;2023-05-10T05:09:12;1.73;;;1.23;;
29280;SDS011;25048;49.590;11.026;2023-05-10T05:11:40;1.40;;;1.30;;
29280;SDS011;25048;49.590;11.026;2023-05-10T05:14:07;1.20;;;1.10;;
29280;SDS011;25048;49.590;11.026;2023-05-10T05:16:35;1.20;;;1.10;;
29280;SDS011;25048;49.590;11.026;2023-05-10T05:19:02;1.60;;;1.07;;
29280;SDS011;25048;49.590;11.026;2023-05-10T05:21:30;2.20;;;1.27;;
29280;SDS011;25048;49.590;11.026;2023-05-10T05:23:58;1.90;;;1.70;;
29280;SDS011;25048;49.590;11.026;2023-05-10T05:26:26;1.23;;;1.13;;
29280;SDS011;25048;49.590;11.026;2023-05-10T05:28:54;1.23;;;1.17;;
29280;SDS011;25048;49.590;11.026;2023-05-10T05:31:21;1.40;;;1.30;;
29280;SDS011;25048;49.590;11.026;2023-05-10T05:33:49;1.83;;;1.30;;
29280;SDS011;25048;49.590;11.026;2023-05-10T05:36:16;1.40;;;1.30;;
29280;SDS011;25048;49.590;11.026;2023-05-10T05:38:44;1.43;;;1.33;;
29280;SDS011;25048;49.590;11.026;2023-05-10T05:41:11;2.20;;;2.00;;
29280;SDS011;25048;49.590;11.026;2023-05-10T05:43:39;1.30;;;1.20;;
29280;SDS011;25048;49.590;11.026;2023-05-10T05:46:06;2.13;;;1.30;;
29280;SDS011;25048;49.590;11.026;2023-05-10T05:48:34;1.40;;;1.30;;
29280;SDS011;25048;49.590;11.026;2023-05-10T05:51:01;2.40;;;1.30;;
29280;SDS011;25048;49.590;11.026;2023-05-10T05:53:29;1.33;;;1.23;;
29280;SDS011;25048;49.590;11.026;2023-05-10T05:55:57;1.50;;;1.40;;
29280;SDS011;25048;49.590;11.026;2023-05-10T05:58:25;1.73;;;1.47;;
29280;SDS011;25048;49.590;11.026;2023-05-10T06:00:53;1.53;;;1.43;;
29280;SDS011;25048;49.590;11.026;2023-05-10T06:03:21;2.57;;;1.47;;
29280;SDS011;25048;49.590;11.026;2023-05-10T06:05:48;1.60;;;1.40;;
29280;SDS011;25048;49.590;11.026;2023-05-10T06:08:16;3.50;;;1.43;;
29280;SDS011;25048;49.590;11.026;2023-05-10T06:10:43;3.03;;;1.30;;
29280;SDS011;25048;49.590;11.026;2023-05-10T06:13:11;1.77;;;1.67;;
29280;SDS011;25048;49.590;11.026;2023-05-10T06:15:38;1.47;;;1.37;;
29280;SDS011;25048;49.590;11.026;2023-05-10T06:18:06;1.40;;;1.30;;
29280;SDS011;25048;49.590;11.026;2023-05-10T06:20:33;1.43;;;1.33;;
29280;SDS011;25048;49.590;11.026;2023-05-10T06:23:01;5.13;;;1.93;;
29280;SDS011;25048;49.590;11.026;2023-05-10T06:25:28;3.90;;;1.40;;
29280;SDS011;25048;49.590;11.026;2023-05-10T06:27:56;1.53;;;1.43;;
29280;SDS011;25048;49.590;11.026;2023-05-10T06:30:28;1.63;;;1.23;;
29280;SDS011;25048;49.590;11.026;2023-05-10T06:32:54;3.23;;;1.20;;
29280;SDS011;25048;49.590;11.026;2023-05-10T06:35:22;1.40;;;1.30;;
29280;SDS011;25048;49.590;11.026;2023-05-10T06:37:50;2.57;;;1.67;;
29280;SDS011;25048;49.590;11.026;2023-05-10T06:40:17;3.30;;;1.53;;
29280;SDS011;25048;49.590;11.026;2023-05-10T06:42:45;1.70;;;1.50;;
29280;SDS011;25048;49.590;11.026;2023-05-10T06:45:14;4.43;;;1.47;;
29280;SDS011;25048;49.590;11.026;2023-05-10T06:47:42;4.25;;;1.32;;
29280;SDS011;25048;49.590;11.026;2023-05-10T06:50:10;1.70;;;1.30;;
29280;SDS011;25048;49.590;11.026;2023-05-10T06:52:37;1.37;;;1.27;;
29280;SDS011;25048;49.590;11.026;2023-05-10T06:55:05;1.30;;;1.20;;
29280;SDS011;25048;49.590;11.026;2023-05-10T06:57:34;1.13;;;1.10;;
29280;SDS011;25048;49.590;11.026;2023-05-10T07:00:02;1.00;;;1.00;;
29280;SDS011;25048;49.590;11.026;2023-05-10T07:02:30;1.67;;;1.20;;
29280;SDS011;25048;49.590;11.026;2023-05-10T07:04:58;2.03;;;1.20;;
29280;SDS011;25048;49.590;11.026;2023-05-10T07:07:25;1.87;;;0.98;;
29280;SDS011;25048;49.590;11.026;2023-05-10T07:09:53;2.30;;;1.00;;
29280;SDS011;25048;49.590;11.026;2023-05-10T07:12:22;3.30;;;1.20;;
29280;SDS011;25048;49.590;11.026;2023-05-10T07:14:50;1.13;;;1.03;;
29280;SDS011;25048;49.590;11.026;2023-05-10T07:17:18;1.95;;;1.12;;
29280;SDS011;25048;49.590;11.026;2023-05-10T07:19:45;0.90;;;0.90;;
29280;SDS011;25048;49.590;11.026;2023-05-10T07:22:13;3.40;;;0.90;;
29280;SDS011;25048;49.590;11.026;2023-05-10T07:24:41;0.67;;;0.67;;
29280;SDS011;25048;49.590;11.026;2023-05-10T07:27:09;1.22;;;1.00;;
29280;SDS011;25048;49.590;11.026;2023-05-10T07:29:36;2.67;;;0.70;;
29280;SDS011;25048;49.590;11.026;2023-05-10T07:32:04;0.88;;;0.70;;
29280;SDS011;25048;49.590;11.026;2023-05-10T07:34:32;1.02;;;0.57;;
29280;SDS011;25048;49.590;11.026;2023-05-10T07:37:00;0.95;;;0.75;;
29280;SDS011;25048;49.590;11.026;2023-05-10T07:39:28;1.30;;;0.95;;
29280;SDS011;25048;49.590;11.026;2023-05-10T07:41:55;1.05;;;0.60;;
29280;SDS011;25048;49.590;11.026;2023-05-10T07:44:23;0.50;;;0.50;;
29280;SDS011;25048;49.590;11.026;2023-05-10T07:46:50;0.60;;;0.50;;
29280;SDS011;25048;49.590;11.026;2023-05-10T07:49:18;0.65;;;0.50;;
29280;SDS011;25048;49.590;11.026;2023-05-10T07:51:46;0.70;;;0.70;;
29280;SDS011;25048;49.590;11.026;2023-05-10T07:54:14;1.10;;;0.70;;
29280;SDS011;25048;49.590;11.026;2023-05-10T07:56:41;0.88;;;0.72;;
29280;SDS011;25048;49.590;11.026;2023-05-10T07:59:14;3.20;;;0.75;;
29280;SDS011;25048;49.590;11.026;2023-05-10T08:01:59;1.23;;;0.70;;
29280;SDS011;25048;49.590;11.026;2023-05-10T08:04:26;1.60;;;0.90;;
29280;SDS011;25048;49.590;11.026;2023-05-10T08:06:54;0.93;;;0.62;;
29280;SDS011;25048;49.590;11.026;2023-05-10T08:09:21;0.85;;;0.78;;
29280;SDS011;25048;49.590;11.026;2023-05-10T08:11:49;0.72;;;0.62;;
29280;SDS011;25048;49.590;11.026;2023-05-10T08:14:17;7.42;;;0.80;;
29280;SDS011;25048;49.590;11.026;2023-05-10T08:16:45;1.40;;;0.82;;
29280;SDS011;25048;49.590;11.026;2023-05-10T08:19:13;0.90;;;0.80;;
29280;SDS011;25048;49.590;11.026;2023-05-10T08:21:42;2.62;;;1.35;;
29280;SDS011;25048;49.590;11.026;2023-05-10T08:24:09;0.80;;;0.80;;
29280;SDS011;25048;49.590;11.026;2023-05-10T08:26:37;5.75;;;1.00;;
29280;SDS011;25048;49.590;11.026;2023-05-10T08:29:05;1.55;;;1.12;;
29280;SDS011;25048;49.590;11.026;2023-05-10T08:31:32;1.30;;;1.13;;
29280;SDS011;25048;49.590;11.026;2023-05-10T08:34:00;1.40;;;1.02;;
29280;SDS011;25048;49.590;11.026;2023-05-10T08:36:27;2.35;;;0.80;;
29280;SDS011;25048;49.590;11.026;2023-05-10T08:38:55;0.95;;;0.90;;
29280;SDS011;25048;49.590;11.026;2023-05-10T08:41:23;1.60;;;0.93;;
29280;SDS011;25048;49.590;11.026;2023-05-10T08:43:53;2.65;;;0.93;;
29280;SDS011;25048;49.590;11.026;2023-05-10T08:46:21;1.30;;;1.05;;
29280;SDS011;25048;49.590;11.026;2023-05-10T08:48:50;1.15;;;0.90;;
29280;SDS011;25048;49.590;11.026;2023-05-10T08:51:19;1.15;;;1.05;;
29280;SDS011;25048;49.590;11.026;2023-05-10T08:53:48;1.07;;;0.97;;
29280;SDS011;25048;49.590;11.026;2023-05-10T08:56:15;5.42;;;0.90;;
29280;SDS011;25048;49.590;11.026;2023-05-10T08:58:43;1.70;;;0.80;;
29280;SDS011;25048;49.590;11.026;2023-05-10T09:01:11;1.22;;;1.05;;
29280;SDS011;25048;49.590;11.026;2023-05-10T09:03:40;1.95;;;1.22;;
29280;SDS011;25048;49.590;11.026;2023-05-10T09:06:07;3.20;;;1.00;;
29280;SDS011;25048;49.590;11.026;2023-05-10T09:08:35;1.35;;;0.90;;
29280;SDS011;25048;49.590;11.026;2023-05-10T09:11:04;4.03;;;1.47;;
29280;SDS011;25048;49.590;11.026;2023-05-10T09:13:32;1.30;;;1.10;;
29280;SDS011;25048;49.590;11.026;2023-05-10T09:16:02;1.22;;;1.07;;
29280;SDS011;25048;49.590;11.026;2023-05-10T09:18:30;1.50;;;1.05;;
29280;SDS011;25048;49.590;11.026;2023-05-10T09:20:58;1.20;;;1.10;;
29280;SDS011;25048;49.590;11.026;2023-05-10T09:23:25;1.25;;;0.93;;
29280;SDS011;25048;49.590;11.026;2023-05-10T09:26:04;1.70;;;0.80;;
29280;SDS011;25048;49.590;11.026;2023-05-10T09:28:33;2.02;;;1.00;;
29280;SDS011;25048;49.590;11.026;2023-05-10T09:31:01;1.30;;;1.20;;
29280;SDS011;25048;49.590;11.026;2023-05-10T09:33:28;1.42;;;0.90;;
29280;SDS011;25048;49.590;11.026;2023-05-10T09:36:06;2.77;;;1.17;;
29280;SDS011;25048;49.590;11.026;2023-05-10T09:38:28;1.30;;;1.20;;
29280;SDS011;25048;49.590;11.026;2023-05-10T09:40:58;3.58;;;1.52;;
29280;SDS011;25048;49.590;11.026;2023-05-10T09:43:28;1.70;;;1.05;;
29280;SDS011;25048;49.590;11.026;2023-05-10T09:45:58;3.15;;;1.20;;
29280;SDS011;25048;49.590;11.026;2023-05-10T09:48:28;1.67;;;1.30;;
29280;SDS011;25048;49.590;11.026;2023-05-10T09:50:58;1.00;;;1.00;;
29280;SDS011;25048;49.590;11.026;2023-05-10T09:53:26;1.20;;;1.10;;
29280;SDS011;25048;49.590;11.026;2023-05-10T09:55:53;0.90;;;0.90;;
29280;SDS011;25048;49.590;11.026;2023-05-10T09:58:21;1.57;;;1.10;;
29280;SDS011;25048;49.590;11.026;2023-05-10T10:00:48;1.45;;;0.90;;
29280;SDS011;25048;49.590;11.026;2023-05-10T10:03:20;3.65;;;0.98;;
29280;SDS011;25048;49.590;11.026;2023-05-10T10:05:50;1.60;;;1.12;;
29280;SDS011;25048;49.590;11.026;2023-05-10T10:08:19;1.20;;;0.90;;
29280;SDS011;25048;49.590;11.026;2023-05-10T10:10:46;2.27;;;1.17;;
29280;SDS011;25048;49.590;11.026;2023-05-10T10:13:14;3.35;;;1.10;;
29280;SDS011;25048;49.590;11.026;2023-05-10T10:15:43;1.07;;;0.98;;
29280;SDS011;25048;49.590;11.026;2023-05-10T10:18:14;1.55;;;1.00;;
29280;SDS011;25048;49.590;11.026;2023-05-10T10:20:42;2.10;;;1.02;;
29280;SDS011;25048;49.590;11.026;2023-05-10T10:23:09;2.30;;;1.15;;
29280;SDS011;25048;49.590;11.026;2023-05-10T10:25:37;1.45;;;1.35;;
29280;SDS011;25048;49.590;11.026;2023-05-10T10:30:42;2.42;;;1.12;;
29280;SDS011;25048;49.590;11.026;2023-05-10T10:33:21;6.00;;;1.32;;
29280;SDS011;25048;49.590;11.026;2023-05-10T10:35:52;1.85;;;1.35;;
29280;SDS011;25048;49.590;11.026;2023-05-10T10:38:21;3.83;;;1.00;;
29280;SDS011;25048;49.590;11.026;2023-05-10T10:40:48;1.87;;;0.75;;
29280;SDS011;25048;49.590;11.026;2023-05-10T10:43:31;0.95;;;0.72;;
29280;SDS011;25048;49.590;11.026;2023-05-10T10:46:12;1.98;;;0.70;;
29280;SDS011;25048;49.590;11.026;2023-05-10T10:48:49;2.90;;;0.70;;
29280;SDS011;25048;49.590;11.026;2023-05-10T10:51:19;1.25;;;0.68;;
29280;SDS011;25048;49.590;11.026;2023-05-10T10:53:47;1.05;;;0.70;;
29280;SDS011;25048;49.590;11.026;2023-05-10T10:56:15;2.80;;;0.85;;
29280;SDS011;25048;49.590;11.026;2023-05-10T10:58:48;1.65;;;0.62;;
29280;SDS011;25048;49.590;11.026;2023-05-10T11:01:18;1.00;;;0.80;;
29280;SDS011;25048;49.590;11.026;2023-05-10T11:06:29;3.22;;;1.00;;
29280;SDS011;25048;49.590;11.026;2023-05-10T11:08:59;1.20;;;0.70;;
29280;SDS011;25048;49.590;11.026;2023-05-10T11:11:53;2.52;;;1.00;;
29280;SDS011;25048;49.590;11.026;2023-05-10T11:14:21;0.80;;;0.70;;
29280;SDS011;25048;49.590;11.026;2023-05-10T11:16:49;1.15;;;0.90;;
29280;SDS011;25048;49.590;11.026;2023-05-10T11:19:17;2.87;;;0.80;;
29280;SDS011;25048;49.590;11.026;2023-05-10T11:21:49;4.12;;;1.20;;
29280;SDS011;25048;49.590;11.026;2023-05-10T11:24:20;0.95;;;0.90;;
29280;SDS011;25048;49.590;11.026;2023-05-10T11:26:50;1.10;;;1.00;;
29280;SDS011;25048;49.590;11.026;2023-05-10T11:29:18;1.92;;;0.90;;
29280;SDS011;25048;49.590;11.026;2023-05-10T11:31:46;5.33;;;1.20;;
29280;SDS011;25048;49.590;11.026;2023-05-10T11:34:27;1.42;;;1.12;;
29280;SDS011;25048;49.590;11.026;2023-05-10T11:36:56;3.98;;;1.45;;
29280;SDS011;25048;49.590;11.026;2023-05-10T11:39:28;1.42;;;1.32;;
29280;SDS011;25048;49.590;11.026;2023-05-10T11:41:57;1.32;;;1.00;;
29280;SDS011;25048;49.590;11.026;2023-05-10T11:44:29;1.20;;;1.10;;
29280;SDS011;25048;49.590;11.026;2023-05-10T11:47:00;1.20;;;1.10;;
29280;SDS011;25048;49.590;11.026;2023-05-10T11:49:28;5.42;;;1.70;;
29280;SDS011;25048;49.590;11.026;2023-05-10T11:52:06;4.80;;;1.10;;
29280;SDS011;25048;49.590;11.026;2023-05-10T11:54:34;1.45;;;0.90;;
29280;SDS011;25048;49.590;11.026;2023-05-10T11:57:02;1.92;;;1.32;;
29280;SDS011;25048;49.590;11.026;2023-05-10T11:59:29;2.47;;;1.00;;
29280;SDS011;25048;49.590;11.026;2023-05-10T12:01:57;4.47;;;1.20;;
29280;SDS011;25048;49.590;11.026;2023-05-10T12:04:25;6.53;;;1.05;;
29280;SDS011;25048;49.590;11.026;2023-05-10T12:06:55;1.52;;;0.80;;
29280;SDS011;25048;49.590;11.026;2023-05-10T12:09:22;0.80;;;0.70;;
29280;SDS011;25048;49.590;11.026;2023-05-10T12:11:50;4.87;;;1.25;;
29280;SDS011;25048;49.590;11.026;2023-05-10T12:14:21;4.83;;;0.65;;
29280;SDS011;25048;49.590;11.026;2023-05-10T12:16:50;1.15;;;0.80;;
29280;SDS011;25048;49.590;11.026;2023-05-10T12:19:18;1.52;;;0.78;;
29280;SDS011;25048;49.590;11.026;2023-05-10T12:21:49;2.55;;;1.42;;
29280;SDS011;25048;49.590;11.026;2023-05-10T12:24:16;1.82;;;0.93;;
29280;SDS011;25048;49.590;11.026;2023-05-10T12:26:47;1.80;;;0.90;;
29280;SDS011;25048;49.590;11.026;2023-05-10T12:29:19;2.33;;;1.07;;
29280;SDS011;25048;49.590;11.026;2023-05-10T12:31:51;1.77;;;0.80;;
29280;SDS011;25048;49.590;11.026;2023-05-10T12:34:30;0.70;;;0.70;;
29280;SDS011;25048;49.590;11.026;2023-05-10T12:36:53;2.08;;;0.90;;
29280;SDS011;25048;49.590;11.026;2023-05-10T12:39:21;1.30;;;0.80;;
29280;SDS011;25048;49.590;11.026;2023-05-10T12:41:48;5.45;;;0.70;;
29280;SDS011;25048;49.590;11.026;2023-05-10T12:44:17;4.00;;;0.90;;
29280;SDS011;25048;49.590;11.026;2023-05-10T12:46:45;2.05;;;1.02;;
29280;SDS011;25048;49.590;11.026;2023-05-10T12:49:12;1.77;;;0.98;;
29280;SDS011;25048;49.590;11.026;2023-05-10T12:51:40;2.70;;;0.90;;
29280;SDS011;25048;49.590;11.026;2023-05-10T12:54:07;2.05;;;0.90;;
29280;SDS011;25048;49.590;11.026;2023-05-10T12:56:35;3.27;;;0.90;;
29280;SDS011;25048;49.590;11.026;2023-05-10T12:59:03;1.27;;;0.80;;
29280;SDS011;25048;49.590;11.026;2023-05-10T13:01:30;2.00;;;0.98;;
29280;SDS011;25048;49.590;11.026;2023-05-10T13:03:58;1.10;;;0.70;;
29280;SDS011;25048;49.590;11.026;2023-05-10T13:06:25;1.92;;;0.70;;
29280;SDS011;25048;49.590;11.026;2023-05-10T13:08:53;0.88;;;0.82;;
29280;SDS011;25048;49.590;11.026;2023-05-10T13:11:20;2.10;;;0.82;;
29280;SDS011;25048;49.590;11.026;2023-05-10T13:13:48;2.25;;;1.10;;
29280;SDS011;25048;49.590;11.026;2023-05-10T13:16:15;1.00;;;0.80;;
29280;SDS011;25048;49.590;11.026;2023-05-10T13:18:43;2.42;;;0.80;;
29280;SDS011;25048;49.590;11.026;2023-05-10T13:21:10;3.10;;;1.00;;
29280;SDS011;25048;49.590;11.026;2023-05-10T13:23:38;1.55;;;0.90;;
29280;SDS011;25048;49.590;11.026;2023-05-10T13:26:05;1.42;;;0.90;;
29280;SDS011;25048;49.590;11.026;2023-05-10T13:28:33;1.47;;;1.22;;
29280;SDS011;25048;49.590;11.026;2023-05-10T13:31:00;2.60;;;1.30;;
29280;SDS011;25048;49.590;11.026;2023-05-10T13:33:28;1.25;;;1.10;;
29280;SDS011;25048;49.590;11.026;2023-05-10T13:35:55;1.92;;;0.93;;
29280;SDS011;25048;49.590;11.026;2023-05-10T13:38:23;2.75;;;1.17;;
29280;SDS011;25048;49.590;11.026;2023-05-10T13:40:51;9.75;;;1.42;;
29280;SDS011;25048;49.590;11.026;2023-05-10T13:43:19;3.95;;;1.10;;
29280;SDS011;25048;49.590;11.026;2023-05-10T13:45:46;1.67;;;1.00;;
29280;SDS011;25048;49.590;11.026;2023-05-10T13:48:14;1.25;;;0.95;;
29280;SDS011;25048;49.590;11.026;2023-05-10T13:50:42;2.08;;;1.20;;
29280;SDS011;25048;49.590;11.026;2023-05-10T13:53:10;2.70;;;0.82;;
29280;SDS011;25048;49.590;11.026;2023-05-10T13:55:38;2.98;;;1.17;;
29280;SDS011;25048;49.590;11.026;2023-05-10T13:58:05;1.50;;;1.10;;
29280;SDS011;25048;49.590;11.026;2023-05-10T14:00:33;1.87;;;1.22;;
29280;SDS011;25048;49.590;11.026;2023-05-10T14:03:01;1.50;;;0.80;;
29280;SDS011;25048;49.590;11.026;2023-05-10T14:05:30;2.37;;;1.20;;
29280;SDS011;25048;49.590;11.026;2023-05-10T14:07:58;2.10;;;1.67;;
29280;SDS011;25048;49.590;11.026;2023-05-10T14:10:25;4.47;;;1.20;;
29280;SDS011;25048;49.590;11.026;2023-05-10T14:12:53;6.80;;;2.00;;
29280;SDS011;25048;49.590;11.026;2023-05-10T14:15:21;8.18;;;2.50;;
29280;SDS011;25048;49.590;11.026;2023-05-10T14:17:48;12.40;;;2.42;;
29280;SDS011;25048;49.590;11.026;2023-05-10T14:20:16;7.47;;;2.40;;
29280;SDS011;25048;49.590;11.026;2023-05-10T14:22:43;5.15;;;2.25;;
29280;SDS011;25048;49.590;11.026;2023-05-10T14:25:11;6.75;;;2.67;;
29280;SDS011;25048;49.590;11.026;2023-05-10T14:27:39;3.55;;;2.40;;
29280;SDS011;25048;49.590;11.026;2023-05-10T14:30:06;3.60;;;3.10;;
29280;SDS011;25048;49.590;11.026;2023-05-10T14:32:34;4.13;;;2.73;;
29280;SDS011;25048;49.590;11.026;2023-05-10T14:35:02;4.83;;;2.87;;
29280;SDS011;25048;49.590;11.026;2023-05-10T14:37:31;5.87;;;3.60;;
29280;SDS011;25048;49.590;11.026;2023-05-10T14:39:59;2.42;;;2.22;;
29280;SDS011;25048;49.590;11.026;2023-05-10T14:42:26;3.65;;;2.35;;
29280;SDS011;25048;49.590;11.026;2023-05-10T14:44:54;3.60;;;1.90;;
29280;SDS011;25048;49.590;11.026;2023-05-10T14:47:22;2.05;;;1.85;;
29280;SDS011;25048;49.590;11.026;2023-05-10T14:49:49;2.42;;;1.82;;
29280;SDS011;25048;49.590;11.026;2023-05-10T14:52:17;3.60;;;2.40;;
29280;SDS011;25048;49.590;11.026;2023-05-10T14:54:44;2.37;;;2.00;;
29280;SDS011;25048;49.590;11.026;2023-05-10T14:57:12;2.67;;;2.10;;
29280;SDS011;25048;49.590;11.026;2023-05-10T14:59:39;2.35;;;2.15;;
29280;SDS011;25048;49.590;11.026;2023-05-10T15:02:07;2.93;;;2.13;;